Главная страница
METAR-TAF:

METAR-TAF

Аэропорты :

Хамадан, Иран

широта: 34-52-05N, долгота: 048-33-08E, высота над уровнем моря: 1757 м

Текущие метеонаблюдения

Эта сводка был подготовлена 15 минут назад, в 08:00 UTC
Ветер 6 Узел от северо-западный
Температура 22°C
Влажность 31%
Давление 1019 hPa
Видимость 10 км и более
Нет облачности ниже 1500 м, и нет кучево-дождевой облачности

METAR: OIHH 070800Z 32006KT CAVOK 22/04 Q1019

Время: 12:45 (08:15 UTC)


TAF: отсутствует

Метеонаблюдения и прогнозы для более 4000 аэропортов (сводки METAR и TAF).

Имеющиеся станции представлены на карте желтыми и красными точками.

Чтобы увидеть название станции, наведите на нее мышь.

Затем щелкните, чтобы увидеть метеонаблюдения и метеопрогнозы.

Управление картой: чтобы увеличить масштаб, щелкните зеленые кнопки с черным крестиком; чтобы уменьшить масштаб, щелкните зеленую кнопку с тире; для просмотра соседних карт щелкайте зеленые стрелки.


METAR-TAF: